Time;durP1;ratioP1;P1;durP2;ratioP2;P2;SDS_P1;SDS_P2;PMS_P1;PMS_P2;Temp;Humidity;BMP_temperature;BMP_pressure;BME280_temperature;BME280_humidity;BME280_pressure;Samples;Min_cycle;Max_cycle;Signal;HPM_P1;HPM_P2
2021/04/16 00:00:18;;;;;;;8.60;3.10;;;24.40;58.60;;;;;;5076326;28;20392;-79
2021/04/16 00:02:45;;;;;;;7.25;3.03;;;24.00;52.70;;;;;;5082596;28;20393;-79
2021/04/16 00:05:13;;;;;;;6.47;2.53;;;23.30;53.50;;;;;;5088744;28;20418;-79
2021/04/16 00:07:40;;;;;;;5.88;2.85;;;23.30;55.80;;;;;;5088920;28;20496;-80
2021/04/16 00:10:16;;;;;;;8.50;2.92;;;23.90;52.50;;;;;;5088058;28;20408;-79
2021/04/16 00:12:45;;;;;;;8.10;3.08;;;24.50;54.70;;;;;;5088014;28;20935;-78
2021/04/16 00:15:16;;;;;;;9.50;2.80;;;24.80;52.50;;;;;;5090074;28;20394;-79
2021/04/16 00:17:44;;;;;;;7.72;2.53;;;25.00;52.80;;;;;;5089893;28;20454;-78
2021/04/16 00:20:14;;;;;;;7.70;2.78;;;24.90;52.10;;;;;;5084245;28;20469;-81
2021/04/16 00:22:41;;;;;;;5.75;2.67;;;25.00;51.80;;;;;;5088718;28;20430;-79
2021/04/16 00:25:11;;;;;;;7.40;2.80;;;24.50;52.70;;;;;;5086858;28;20388;-82
2021/04/16 00:27:38;;;;;;;5.35;2.45;;;24.60;55.50;;;;;;5086499;28;20764;-79
2021/04/16 00:30:10;;;;;;;6.30;2.60;;;24.90;54.60;;;;;;5087119;28;20921;-81
2021/04/16 00:32:38;;;;;;;6.35;2.42;;;25.20;54.50;;;;;;5088759;28;20400;-80
2021/04/16 00:35:07;;;;;;;8.18;2.53;;;25.40;53.60;;;;;;5089910;28;20878;-80
2021/04/16 00:37:34;;;;;;;6.07;2.00;;;25.70;52.60;;;;;;5082777;28;20398;-81
2021/04/16 00:40:02;;;;;;;4.65;2.03;;;24.90;54.30;;;;;;5086866;28;20807;-80
2021/04/16 00:42:28;;;;;;;6.88;2.03;;;23.90;58.00;;;;;;5086121;28;20400;-81
2021/04/16 00:44:57;;;;;;;7.75;1.98;;;24.00;58.90;;;;;;5088562;28;20436;-81
2021/04/16 00:47:25;;;;;;;7.07;1.90;;;24.10;59.40;;;;;;5089566;28;20508;-79
2021/04/16 00:49:57;;;;;;;7.67;2.03;;;23.60;59.10;;;;;;5084675;28;20433;-80
2021/04/16 00:52:33;;;;;;;5.95;2.05;;;23.20;61.60;;;;;;5076508;28;20761;-80
2021/04/16 00:55:03;;;;;;;6.13;1.90;;;23.00;62.10;;;;;;5083584;28;20388;-80
2021/04/16 00:57:35;;;;;;;8.10;2.10;;;23.20;63.50;;;;;;5096996;28;20476;-81
2021/04/16 01:00:07;;;;;;;6.05;2.10;;;23.50;63.40;;;;;;5090131;27;20388;-80
2021/04/16 01:02:34;;;;;;;6.97;1.85;;;23.30;63.50;;;;;;5080602;28;20487;-79
2021/04/16 01:05:01;;;;;;;7.25;2.10;;;23.30;63.30;;;;;;5088364;28;20399;-80
2021/04/16 01:07:28;;;;;;;7.13;1.98;;;22.50;65.40;;;;;;5088807;28;20493;-80
2021/04/16 01:09:55;;;;;;;7.43;2.20;;;22.00;69.40;;;;;;5084333;28;20413;-80
2021/04/16 01:12:23;;;;;;;11.00;1.95;;;21.80;68.80;;;;;;5077857;28;20396;-80
2021/04/16 01:14:57;;;;;;;6.33;2.10;;;21.40;68.00;;;;;;5089429;28;20376;-78
2021/04/16 01:17:24;;;;;;;9.25;2.10;;;21.00;70.10;;;;;;5091001;28;20852;-79
2021/04/16 01:19:54;;;;;;;8.63;2.00;;;20.60;71.60;;;;;;5089706;28;20452;-80
2021/04/16 01:22:32;;;;;;;7.63;2.17;;;20.40;73.30;;;;;;5083205;28;20400;-80
2021/04/16 01:25:00;;;;;;;10.40;2.15;;;20.00;74.60;;;;;;5079992;28;20419;-79
2021/04/16 01:27:29;;;;;;;10.18;2.20;;;19.80;77.30;;;;;;5086216;28;20401;-78
2021/04/16 01:30:02;;;;;;;9.38;2.22;;;19.90;77.40;;;;;;5086995;28;20962;-79
2021/04/16 01:32:31;;;;;;;8.98;2.35;;;19.90;80.00;;;;;;5087426;28;20399;-78
2021/04/16 01:34:59;;;;;;;9.70;2.05;;;19.90;79.50;;;;;;5076098;28;20397;-83
2021/04/16 01:37:29;;;;;;;9.27;2.22;;;19.90;80.80;;;;;;5087441;28;20404;-80
2021/04/16 01:39:56;;;;;;;12.47;2.80;;;19.90;81.10;;;;;;5087994;28;20532;-78
2021/04/16 01:42:24;;;;;;;7.32;2.17;;;20.00;82.40;;;;;;5088049;28;20437;-79
2021/04/16 01:44:51;;;;;;;9.70;2.78;;;20.10;84.60;;;;;;5084793;28;20392;-79
2021/04/16 01:47:18;;;;;;;11.20;2.53;;;20.10;85.20;;;;;;5083412;28;20384;-79
2021/04/16 01:49:50;;;;;;;13.13;3.10;;;20.10;85.40;;;;;;5080160;28;20402;-78
2021/04/16 01:52:30;;;;;;;12.73;2.72;;;20.10;86.70;;;;;;5088208;28;20391;-79
2021/04/16 01:54:58;;;;;;;12.52;2.38;;;20.10;88.10;;;;;;5081121;28;20899;-79
2021/04/16 01:57:29;;;;;;;14.65;3.38;;;20.20;89.90;;;;;;5085446;28;20416;-79
2021/04/16 01:59:57;;;;;;;10.75;2.70;;;20.10;90.30;;;;;;5088397;28;20379;-80
2021/04/16 02:02:26;;;;;;;10.00;2.70;;;20.10;90.10;;;;;;5085951;28;20400;-79
2021/04/16 02:04:54;;;;;;;10.87;2.90;;;19.60;90.90;;;;;;5086741;28;20449;-79
2021/04/16 02:07:21;;;;;;;9.98;2.63;;;19.60;91.60;;;;;;5086638;28;20766;-79
2021/04/16 02:09:48;;;;;;;12.20;3.22;;;19.60;92.20;;;;;;5088379;28;20415;-79
2021/04/16 02:12:17;;;;;;;13.10;2.72;;;19.50;92.60;;;;;;5086649;28;20384;-78
2021/04/16 02:14:45;;;;;;;14.00;3.10;;;19.40;93.20;;;;;;5089125;28;20483;-79
2021/04/16 02:17:38;;;;;;;12.35;3.05;;;19.40;93.10;;;;;;5087906;28;20392;-79
2021/04/16 02:20:14;;;;;;;14.55;2.83;;;19.30;93.90;;;;;;5076644;28;20389;-79
2021/04/16 02:22:53;;;;;;;13.43;3.58;;;19.20;93.80;;;;;;5085819;28;20479;-79
2021/04/16 02:25:21;;;;;;;14.33;2.80;;;19.10;94.60;;;;;;5085224;28;20383;-78
2021/04/16 02:27:48;;;;;;;13.85;3.00;;;18.90;95.30;;;;;;5074639;28;20465;-78
2021/04/16 02:30:24;;;;;;;16.98;3.50;;;18.80;96.00;;;;;;5079757;28;20396;-78
2021/04/16 02:32:51;;;;;;;14.60;3.33;;;18.70;96.30;;;;;;5084093;28;20495;-78
2021/04/16 02:35:19;;;;;;;17.33;3.63;;;18.60;96.30;;;;;;5072238;28;20891;-79
2021/04/16 02:37:46;;;;;;;16.55;3.05;;;18.60;96.50;;;;;;5064577;28;20409;-78
2021/04/16 02:40:15;;;;;;;12.43;2.85;;;18.60;95.90;;;;;;5080980;28;20442;-78
2021/04/16 02:42:42;;;;;;;14.98;3.30;;;18.70;96.30;;;;;;5082494;28;20798;-79
2021/04/16 02:45:11;;;;;;;14.82;3.33;;;18.70;95.80;;;;;;5087830;28;20365;-79
2021/04/16 02:47:38;;;;;;;14.00;2.70;;;18.70;96.80;;;;;;5086708;28;20391;-78
2021/04/16 02:50:09;;;;;;;15.07;3.13;;;18.90;95.80;;;;;;5071284;28;20405;-79
2021/04/16 02:52:36;;;;;;;12.88;2.90;;;19.10;95.40;;;;;;5082791;28;20390;-79
2021/04/16 02:55:05;;;;;;;13.05;2.45;;;19.30;96.00;;;;;;5088901;28;20376;-78
2021/04/16 02:57:33;;;;;;;14.40;3.15;;;19.40;95.50;;;;;;5089679;28;20967;-78
2021/04/16 03:00:00;;;;;;;16.77;2.78;;;19.60;95.20;;;;;;5090338;28;20414;-78
2021/04/16 03:02:27;;;;;;;14.98;3.35;;;19.60;93.40;;;;;;5085487;28;20400;-78
2021/04/16 03:04:54;;;;;;;14.00;2.60;;;19.50;94.20;;;;;;5082029;28;20395;-79
2021/04/16 03:07:24;;;;;;;17.10;2.70;;;19.30;93.70;;;;;;5086258;28;20798;-79
2021/04/16 03:09:51;;;;;;;13.82;2.70;;;19.30;95.10;;;;;;5088239;28;20475;-79
2021/04/16 03:12:18;;;;;;;12.05;2.60;;;19.60;94.30;;;;;;5086519;28;20396;-78
2021/04/16 03:14:45;;;;;;;12.75;2.70;;;19.80;94.00;;;;;;5090442;28;20387;-79
2021/04/16 03:17:12;;;;;;;12.43;2.60;;;19.90;93.60;;;;;;5076378;28;20502;-79
2021/04/16 03:19:39;;;;;;;13.95;2.72;;;19.90;93.60;;;;;;5091325;28;20473;-80
2021/04/16 03:22:06;;;;;;;12.00;2.70;;;19.60;93.70;;;;;;5091197;28;20404;-78
2021/04/16 03:24:33;;;;;;;13.68;2.90;;;19.40;94.20;;;;;;5090930;28;20388;-78
2021/04/16 03:27:00;;;;;;;16.20;2.90;;;19.10;94.90;;;;;;5090551;28;20504;-78
2021/04/16 03:29:27;;;;;;;11.67;2.80;;;18.90;94.50;;;;;;5089406;28;20388;-80
2021/04/16 03:31:54;;;;;;;17.47;2.80;;;18.60;95.20;;;;;;5091156;28;20495;-78
2021/04/16 03:34:21;;;;;;;11.43;2.63;;;18.40;95.80;;;;;;5091196;28;20388;-81
2021/04/16 03:36:49;;;;;;;13.82;3.35;;;18.30;95.80;;;;;;5089717;28;20473;-82
2021/04/16 03:39:17;;;;;;;9.43;2.17;;;18.10;96.30;;;;;;5082667;28;20471;-81
2021/04/16 03:41:44;;;;;;;13.18;2.88;;;18.10;96.30;;;;;;5090307;28;20392;-80
2021/04/16 03:44:10;;;;;;;17.05;3.15;;;18.00;96.90;;;;;;5091324;28;20387;-80
2021/04/16 03:46:37;;;;;;;13.48;2.58;;;18.10;96.70;;;;;;5090215;28;20418;-79
2021/04/16 03:49:04;;;;;;;8.68;2.30;;;18.20;96.90;;;;;;5093493;28;20384;-80
2021/04/16 03:51:31;;;;;;;12.10;2.40;;;18.30;96.60;;;;;;5091517;28;20388;-81
2021/04/16 03:54:01;;;;;;;11.52;2.65;;;18.40;96.90;;;;;;5088323;28;20380;-81
2021/04/16 03:56:28;;;;;;;10.13;2.45;;;18.40;96.90;;;;;;5089959;28;20481;-82
2021/04/16 03:58:55;;;;;;;16.38;2.95;;;18.30;96.60;;;;;;5092877;28;20400;-81
2021/04/16 04:01:21;;;;;;;15.93;3.35;;;18.30;96.70;;;;;;5084676;28;20894;-78
2021/04/16 04:03:48;;;;;;;10.57;2.05;;;18.30;97.10;;;;;;5085187;28;20603;-79
2021/04/16 04:06:15;;;;;;;13.93;2.17;;;18.60;95.50;;;;;;5097113;28;20412;-79
2021/04/16 04:08:42;;;;;;;16.42;2.60;;;18.60;94.80;;;;;;5085244;28;20412;-79
2021/04/16 04:11:09;;;;;;;12.48;2.35;;;18.50;95.20;;;;;;5083199;28;20385;-79
2021/04/16 04:13:36;;;;;;;16.35;3.15;;;18.50;95.50;;;;;;5084901;28;20395;-79
2021/04/16 04:16:03;;;;;;;11.00;2.30;;;18.50;95.40;;;;;;5088136;28;20482;-79
2021/04/16 04:18:31;;;;;;;13.15;2.35;;;18.70;96.40;;;;;;5076319;28;20377;-79
2021/04/16 04:20:58;;;;;;;12.15;2.42;;;18.80;95.60;;;;;;5090090;28;20372;-79
2021/04/16 04:23:26;;;;;;;13.70;2.75;;;18.80;95.80;;;;;;5089624;28;20789;-79
2021/04/16 04:25:53;;;;;;;12.20;2.90;;;18.40;95.80;;;;;;5089043;28;20400;-80
2021/04/16 04:28:20;;;;;;;11.40;2.65;;;18.30;96.10;;;;;;5086193;28;20471;-79
2021/04/16 04:30:47;;;;;;;18.52;2.92;;;18.20;97.00;;;;;;5083407;28;20384;-80
2021/04/16 04:33:14;;;;;;;14.57;2.60;;;18.30;96.80;;;;;;5092266;28;20861;-79
2021/04/16 04:35:41;;;;;;;13.80;2.63;;;18.40;97.10;;;;;;5093667;28;20388;-79
2021/04/16 04:38:09;;;;;;;11.15;2.60;;;18.60;96.80;;;;;;5072836;28;20416;-79
2021/04/16 04:40:36;;;;;;;14.82;2.63;;;18.70;95.80;;;;;;5086907;28;20392;-79
2021/04/16 04:43:04;;;;;;;15.32;2.58;;;18.70;95.70;;;;;;5071327;28;20416;-79
2021/04/16 04:45:31;;;;;;;11.07;2.72;;;18.70;96.90;;;;;;5088537;28;20419;-80
2021/04/16 04:47:58;;;;;;;18.15;3.08;;;18.70;96.10;;;;;;5081048;28;20448;-80
2021/04/16 04:50:26;;;;;;;13.93;2.95;;;18.80;95.70;;;;;;5089258;28;20404;-80
2021/04/16 04:52:55;;;;;;;14.35;2.72;;;18.70;96.20;;;;;;5083544;28;20398;-80
2021/04/16 04:55:31;;;;;;;15.45;2.72;;;18.70;96.10;;;;;;5077722;28;20376;-80
2021/04/16 04:57:58;;;;;;;13.70;2.67;;;18.60;95.80;;;;;;5078307;28;20394;-80
2021/04/16 05:00:28;;;;;;;14.93;2.67;;;18.50;96.10;;;;;;5077009;28;21013;-80
2021/04/16 05:02:55;;;;;;;23.35;3.60;;;18.40;96.10;;;;;;5086999;28;20431;-80
2021/04/16 05:05:24;;;;;;;14.75;2.67;;;18.30;96.80;;;;;;5083104;28;20894;-80
2021/04/16 05:07:51;;;;;;;12.27;2.78;;;18.20;96.30;;;;;;5079328;28;20388;-80
2021/04/16 05:10:19;;;;;;;14.23;2.65;;;18.00;96.50;;;;;;5077721;28;20409;-80
2021/04/16 05:12:46;;;;;;;16.15;3.05;;;17.90;96.90;;;;;;5079597;28;20397;-80
2021/04/16 05:15:15;;;;;;;12.25;2.30;;;17.90;97.00;;;;;;5088273;28;20812;-79
2021/04/16 05:17:42;;;;;;;13.13;2.83;;;17.90;97.30;;;;;;5068520;28;20406;-79
2021/04/16 05:20:10;;;;;;;12.80;2.92;;;17.80;97.30;;;;;;5089054;28;20383;-80
2021/04/16 05:22:37;;;;;;;11.03;2.23;;;17.80;97.80;;;;;;5073430;28;20531;-80
2021/04/16 05:25:05;;;;;;;11.55;2.50;;;17.80;97.70;;;;;;5083277;28;20958;-80
2021/04/16 05:27:32;;;;;;;14.43;2.95;;;17.70;97.60;;;;;;5081222;28;20758;-80
2021/04/16 05:30:00;;;;;;;11.25;2.45;;;17.60;98.30;;;;;;5072279;28;20817;-79
2021/04/16 05:32:27;;;;;;;12.73;2.22;;;17.60;97.70;;;;;;5071685;28;20889;-80
2021/04/16 05:34:54;;;;;;;13.30;2.40;;;17.60;97.80;;;;;;5073090;28;20771;-80
2021/04/16 05:37:21;;;;;;;9.98;2.20;;;17.50;98.00;;;;;;5080061;28;20408;-80
2021/04/16 05:39:51;;;;;;;12.60;2.75;;;17.50;98.20;;;;;;5079786;28;20404;-80
2021/04/16 05:42:19;;;;;;;13.70;2.53;;;17.50;98.20;;;;;;5074985;28;20382;-80
2021/04/16 05:44:46;;;;;;;11.40;2.25;;;17.50;98.10;;;;;;5069139;28;20488;-80
2021/04/16 05:47:13;;;;;;;12.70;2.77;;;17.40;98.60;;;;;;5068096;28;20451;-80
2021/04/16 05:49:40;;;;;;;12.95;2.35;;;17.40;98.60;;;;;;5068813;28;20455;-79
2021/04/16 05:52:08;;;;;;;10.65;2.33;;;17.40;98.40;;;;;;5068801;28;20390;-80
2021/04/16 05:54:35;;;;;;;11.57;2.43;;;17.40;97.90;;;;;;5085775;28;20392;-80
2021/04/16 05:57:02;;;;;;;11.38;2.25;;;17.40;98.20;;;;;;5084648;28;20408;-79
2021/04/16 05:59:29;;;;;;;12.88;2.70;;;17.30;97.60;;;;;;5077974;28;20409;-79
2021/04/16 06:01:56;;;;;;;11.25;2.00;;;17.20;98.40;;;;;;5088571;28;21183;-80
2021/04/16 06:04:24;;;;;;;13.05;2.45;;;17.30;98.30;;;;;;5075345;28;20477;-80
2021/04/16 06:06:51;;;;;;;9.35;2.20;;;17.20;98.30;;;;;;5079684;28;20384;-79
2021/04/16 06:09:19;;;;;;;10.13;2.20;;;17.20;98.00;;;;;;5082084;28;20388;-79
2021/04/16 06:11:46;;;;;;;16.38;2.38;;;17.20;97.90;;;;;;5088676;28;20416;-80
2021/04/16 06:14:13;;;;;;;11.90;2.25;;;17.20;98.30;;;;;;5090873;28;20389;-80
2021/04/16 06:16:40;;;;;;;9.48;2.03;;;17.10;98.50;;;;;;5077475;28;20451;-80
2021/04/16 06:19:07;;;;;;;13.90;2.25;;;17.00;98.30;;;;;;5088866;28;20364;-80
2021/04/16 06:21:34;;;;;;;11.82;2.17;;;17.00;98.10;;;;;;5085406;28;20502;-80
2021/04/16 06:24:02;;;;;;;12.77;2.30;;;17.00;97.90;;;;;;5084948;28;21155;-79
2021/04/16 06:26:29;;;;;;;11.70;2.20;;;17.00;98.30;;;;;;5088445;28;20419;-80
2021/04/16 06:29:01;;;;;;;9.57;1.95;;;16.90;98.30;;;;;;5085411;28;20942;-79
2021/04/16 06:31:28;;;;;;;14.18;2.38;;;16.90;98.30;;;;;;5092896;28;20384;-78
2021/04/16 06:33:57;;;;;;;11.27;2.43;;;16.90;98.30;;;;;;5088310;28;20545;-78
2021/04/16 06:36:24;;;;;;;10.50;2.08;;;16.80;98.40;;;;;;5087106;28;20407;-79
2021/04/16 06:38:52;;;;;;;10.95;2.10;;;16.80;98.90;;;;;;5087480;28;20369;-78
2021/04/16 06:41:33;;;;;;;10.23;2.58;;;16.80;98.80;;;;;;5088607;28;20387;-79
2021/04/16 06:44:16;;;;;;;9.20;2.70;;;16.80;98.40;;;;;;5092631;28;20401;-79
2021/04/16 06:46:46;;;;;;;10.68;2.38;;;16.80;98.50;;;;;;5073394;28;20889;-79
2021/04/16 06:49:20;;;;;;;10.55;2.47;;;16.70;98.40;;;;;;5092223;28;20389;-79
2021/04/16 06:52:02;;;;;;;9.02;2.03;;;16.80;98.70;;;;;;5081949;28;20386;-80
2021/04/16 06:54:51;;;;;;;9.70;1.70;;;16.70;98.50;;;;;;5090944;28;20746;-79
2021/04/16 06:57:44;;;;;;;12.27;2.20;;;16.70;98.40;;;;;;5092801;28;20418;-79
2021/04/16 07:00:31;;;;;;;13.10;2.20;;;16.70;98.40;;;;;;5080149;28;20382;-78
2021/04/16 07:03:07;;;;;;;7.70;1.65;;;16.70;98.40;;;;;;5090944;28;20398;-79
2021/04/16 07:05:37;;;;;;;12.30;2.20;;;16.70;98.20;;;;;;5087853;28;20886;-81
2021/04/16 07:08:05;;;;;;;8.43;1.92;;;16.60;98.40;;;;;;5084825;28;20407;-79
2021/04/16 07:10:39;;;;;;;8.27;1.90;;;16.60;98.50;;;;;;5086737;28;20446;-79
2021/04/16 07:13:08;;;;;;;8.68;2.03;;;16.60;98.50;;;;;;5078359;28;20405;-80
2021/04/16 07:15:44;;;;;;;13.60;2.08;;;16.60;98.70;;;;;;5087111;28;20400;-79
2021/04/16 07:18:14;;;;;;;8.40;1.77;;;16.50;98.50;;;;;;5088424;28;20427;-79
2021/04/16 07:20:41;;;;;;;9.80;2.22;;;16.50;98.50;;;;;;5086811;28;20749;-79
2021/04/16 07:23:08;;;;;;;12.33;2.27;;;16.50;98.60;;;;;;5123375;27;20478;-80
2021/04/16 07:25:56;;;;;;;11.38;2.17;;;16.50;98.50;;;;;;5080497;28;20742;-79
2021/04/16 07:28:40;;;;;;;10.48;2.38;;;16.50;98.80;;;;;;5089816;28;20483;-79
2021/04/16 07:31:27;;;;;;;10.43;2.28;;;16.40;98.70;;;;;;5084440;28;20433;-80
2021/04/16 07:33:55;;;;;;;10.38;2.00;;;16.30;98.90;;;;;;5087851;28;20438;-77
2021/04/16 07:36:29;;;;;;;10.38;2.10;;;16.40;98.50;;;;;;5071778;28;20412;-78
2021/04/16 07:39:16;;;;;;;7.38;1.65;;;16.40;98.70;;;;;;5087492;28;20904;-78
2021/04/16 07:41:55;;;;;;;11.63;4.28;;;16.40;98.60;;;;;;5085890;28;20403;-79
2021/04/16 07:44:34;;;;;;;11.18;2.38;;;16.40;98.80;;;;;;5088542;28;20391;-78
2021/04/16 07:47:13;;;;;;;20.60;13.17;;;16.30;98.80;;;;;;5077583;28;20397;-78
2021/04/16 07:49:57;;;;;;;32.42;26.17;;;16.30;98.90;;;;;;5084248;28;20396;-78
2021/04/16 07:52:24;;;;;;;17.55;9.65;;;16.30;98.90;;;;;;5087264;28;20395;-78
2021/04/16 07:55:15;;;;;;;13.15;2.85;;;16.20;98.80;;;;;;5074900;28;20408;-78
2021/04/16 07:58:07;;;;;;;9.48;2.80;;;16.20;98.80;;;;;;5073356;28;20406;-77
2021/04/16 08:00:42;;;;;;;17.97;10.53;;;16.20;98.70;;;;;;5080268;28;20397;-78
2021/04/16 08:03:20;;;;;;;32.03;19.08;;;16.20;99.10;;;;;;5078111;28;20902;-78
2021/04/16 08:05:58;;;;;;;10.93;2.75;;;16.10;99.10;;;;;;5082353;28;20773;-79
2021/04/16 08:08:31;;;;;;;10.65;2.20;;;16.10;98.80;;;;;;5086003;28;20406;-79
2021/04/16 08:11:01;;;;;;;38.00;19.25;;;16.10;98.90;;;;;;5087443;28;20896;-80
2021/04/16 08:13:34;;;;;;;12.15;3.42;;;16.10;99.00;;;;;;5097490;28;20391;-77
2021/04/16 08:16:21;;;;;;;25.07;13.23;;;16.10;99.10;;;;;;5073073;28;20482;-78
2021/04/16 08:19:08;;;;;;;14.52;7.32;;;16.10;99.50;;;;;;5071896;28;20487;-79
2021/04/16 08:21:38;;;;;;;36.90;30.73;;;16.00;99.10;;;;;;5080376;28;20464;-79
2021/04/16 08:24:29;;;;;;;11.33;3.43;;;16.00;99.40;;;;;;5074010;28;20394;-79
2021/04/16 08:27:33;;;;;;;9.65;2.63;;;16.00;99.30;;;;;;5084587;28;20392;-80
2021/04/16 08:30:12;;;;;;;11.25;3.05;;;16.00;99.30;;;;;;5061826;28;20408;-81
2021/04/16 08:32:51;;;;;;;12.55;3.80;;;16.00;99.50;;;;;;5088464;28;20452;-78
2021/04/16 08:35:24;;;;;;;8.88;2.42;;;15.90;99.90;;;;;;5082431;28;20441;-78
2021/04/16 08:38:19;;;;;;;12.50;4.93;;;15.90;99.90;;;;;;5090136;28;20973;-78
2021/04/16 08:40:51;;;;;;;29.88;17.98;;;15.80;99.90;;;;;;5078039;28;20409;-78
2021/04/16 08:43:21;;;;;;;18.25;7.57;;;15.80;99.90;;;;;;5081221;28;20404;-79
2021/04/16 08:45:48;;;;;;;8.73;3.42;;;15.70;99.70;;;;;;5085688;28;20808;-78
2021/04/16 08:48:27;;;;;;;9.15;2.53;;;15.70;99.90;;;;;;5079070;28;20396;-78
2021/04/16 08:51:08;;;;;;;9.20;1.92;;;15.70;99.80;;;;;;5083221;28;20400;-78
2021/04/16 08:53:38;;;;;;;9.45;1.92;;;15.80;99.30;;;;;;5072202;28;20406;-78
2021/04/16 08:56:23;;;;;;;13.02;2.72;;;15.90;99.30;;;;;;5077220;28;22339;-79
2021/04/16 08:58:52;;;;;;;55.23;41.40;;;15.90;99.30;;;;;;5078235;28;20512;-79
2021/04/16 09:01:26;;;;;;;55.03;37.78;;;15.80;99.80;;;;;;5083935;28;20452;-79
2021/04/16 09:03:55;;;;;;;38.22;23.80;;;15.70;99.90;;;;;;5077846;28;20824;-79
2021/04/16 09:06:42;;;;;;;15.07;5.78;;;15.70;99.90;;;;;;5071607;28;20401;-78
2021/04/16 09:09:14;;;;;;;8.73;2.10;;;15.60;99.90;;;;;;5072306;28;20408;-78
2021/04/16 09:11:44;;;;;;;10.10;2.30;;;15.70;99.70;;;;;;5077790;28;21187;-78
2021/04/16 09:14:29;;;;;;;14.63;6.70;;;15.70;99.70;;;;;;5071672;28;20394;-79
2021/04/16 09:16:56;;;;;;;138.10;95.45;;;15.80;99.30;;;;;;5076079;28;20397;-79
2021/04/16 09:19:26;;;;;;;180.25;119.88;;;15.80;99.70;;;;;;5089621;28;20438;-79
2021/04/16 09:22:23;;;;;;;315.17;224.82;;;15.70;99.90;;;;;;5086691;28;20376;-79
2021/04/16 09:24:59;;;;;;;264.30;189.35;;;15.70;99.90;;;;;;5074224;28;20898;-78
2021/04/16 09:27:39;;;;;;;101.22;70.80;;;15.60;99.90;;;;;;5068318;28;20841;-78
2021/04/16 09:30:07;;;;;;;94.38;58.08;;;15.60;99.90;;;;;;5088092;28;20384;-80
2021/04/16 09:32:34;;;;;;;86.97;55.08;;;15.60;99.70;;;;;;5083594;28;20956;-79
2021/04/16 09:35:18;;;;;;;177.10;112.07;;;15.60;99.60;;;;;;5080904;28;20403;-78
2021/04/16 09:37:48;;;;;;;14.68;7.47;;;15.70;99.70;;;;;;5076046;28;20958;-79
2021/04/16 09:40:25;;;;;;;24.65;12.73;;;15.70;99.50;;;;;;5079289;28;20381;-78
2021/04/16 09:43:09;;;;;;;27.75;21.75;;;15.70;99.80;;;;;;5085514;28;20432;-79
2021/04/16 09:45:38;;;;;;;25.20;20.05;;;15.70;99.70;;;;;;5078209;28;20381;-78
2021/04/16 09:48:23;;;;;;;17.85;12.93;;;15.70;99.90;;;;;;5079030;28;21196;-78
2021/04/16 09:51:09;;;;;;;19.02;11.70;;;15.70;99.60;;;;;;5084211;28;20405;-78
2021/04/16 09:53:38;;;;;;;13.75;7.90;;;15.60;99.80;;;;;;5086376;28;20401;-79
2021/04/16 09:56:20;;;;;;;13.20;3.67;;;15.60;99.80;;;;;;5085032;28;20399;-79
2021/04/16 09:58:50;;;;;;;8.83;2.93;;;15.60;99.70;;;;;;5084080;28;20360;-78
2021/04/16 10:01:25;;;;;;;7.20;2.17;;;15.50;99.60;;;;;;5085955;28;20396;-79
2021/04/16 10:03:55;;;;;;;14.55;6.50;;;15.50;99.70;;;;;;5065767;28;20393;-78
2021/04/16 10:06:28;;;;;;;14.88;7.82;;;15.50;99.80;;;;;;5072282;28;20817;-79
2021/04/16 10:09:11;;;;;;;9.18;2.40;;;15.50;99.90;;;;;;5083135;28;20384;-79
2021/04/16 10:11:46;;;;;;;10.20;2.67;;;15.50;99.80;;;;;;5084513;28;20388;-79
2021/04/16 10:14:21;;;;;;;11.65;4.05;;;15.40;99.90;;;;;;5084307;28;20396;-78
2021/04/16 10:17:14;;;;;;;13.52;4.38;;;15.40;99.80;;;;;;5079306;28;20400;-79
2021/04/16 10:19:46;;;;;;;9.93;2.78;;;15.40;99.90;;;;;;5081219;28;20380;-78
2021/04/16 10:22:30;;;;;;;10.77;2.60;;;15.40;99.90;;;;;;5083144;28;20472;-78
2021/04/16 10:44:43;;;;;;;9.30;2.60;;;15.10;99.90;;;;;;5084355;28;20437;-78
2021/04/16 12:39:17;;;;;;;18.40;9.73;;;15.10;99.90;;;;;;5090563;28;20379;-79
2021/04/16 12:41:51;;;;;;;14.43;7.00;;;15.00;99.90;;;;;;5089366;28;20384;-80
2021/04/16 12:44:33;;;;;;;9.77;4.28;;;15.00;99.90;;;;;;5087638;28;20380;-80
2021/04/16 12:47:19;;;;;;;14.25;5.00;;;15.00;99.90;;;;;;5091971;28;20430;-80
2021/04/16 12:49:46;;;;;;;15.47;7.70;;;15.00;99.90;;;;;;5094269;28;20479;-78
2021/04/16 12:52:16;;;;;;;25.52;14.20;;;15.00;99.90;;;;;;5095107;28;20428;-77
2021/04/16 12:54:48;;;;;;;23.33;14.02;;;15.10;99.90;;;;;;5091232;28;20846;-79
2021/04/16 12:57:44;;;;;;;31.35;16.88;;;15.10;99.90;;;;;;5080780;28;20460;-79
2021/04/16 13:00:20;;;;;;;24.35;13.27;;;15.10;99.90;;;;;;5098758;28;20388;-80
2021/04/16 13:02:54;;;;;;;23.40;12.50;;;15.10;99.90;;;;;;5087602;28;20381;-78
2021/04/16 13:05:21;;;;;;;35.95;19.92;;;15.10;99.90;;;;;;5085800;28;20376;-79
2021/04/16 13:07:48;;;;;;;16.80;8.05;;;15.00;99.90;;;;;;5088346;28;20403;-78
2021/04/16 13:10:17;;;;;;;17.67;7.97;;;15.00;99.90;;;;;;5087917;28;20388;-78
2021/04/16 13:12:45;;;;;;;14.82;5.10;;;14.90;99.90;;;;;;5078660;28;20467;-79
2021/04/16 13:15:13;;;;;;;11.75;4.40;;;14.80;99.90;;;;;;5078019;28;21077;-79
2021/04/16 13:17:46;;;;;;;14.07;6.22;;;14.80;99.90;;;;;;5074672;28;20412;-78
2021/04/16 13:20:15;;;;;;;23.88;12.02;;;14.80;99.90;;;;;;5082980;28;20405;-78
2021/04/16 13:22:45;;;;;;;19.70;9.32;;;14.70;99.90;;;;;;5077407;28;20431;-78
2021/04/16 13:25:14;;;;;;;14.00;6.20;;;14.70;99.90;;;;;;5082642;28;20877;-78
2021/04/16 13:27:41;;;;;;;13.98;4.72;;;14.60;99.90;;;;;;5080319;28;20373;-78
2021/04/16 13:30:11;;;;;;;11.10;3.90;;;14.60;99.90;;;;;;5085787;28;20435;-78
2021/04/16 13:32:44;;;;;;;11.50;3.78;;;14.50;99.90;;;;;;5083217;28;20388;-78
2021/04/16 13:35:14;;;;;;;11.60;3.05;;;14.50;99.90;;;;;;5085987;28;20385;-78
2021/04/16 13:37:42;;;;;;;9.27;2.30;;;14.50;99.90;;;;;;5086308;28;20402;-78
2021/04/16 13:40:09;;;;;;;9.35;2.80;;;14.40;99.90;;;;;;5073067;28;20385;-78
2021/04/16 13:42:36;;;;;;;7.37;2.37;;;14.40;99.90;;;;;;5087865;28;20401;-78
2021/04/16 13:45:05;;;;;;;8.75;2.40;;;14.30;99.90;;;;;;5080936;28;20879;-78
2021/04/16 13:47:36;;;;;;;9.45;2.70;;;14.20;99.90;;;;;;5088475;28;20388;-78
2021/04/16 13:50:03;;;;;;;9.40;2.35;;;14.20;99.90;;;;;;5084104;28;20516;-79
2021/04/16 13:52:30;;;;;;;8.98;2.35;;;14.20;99.90;;;;;;5077580;28;20425;-79
2021/04/16 13:54:57;;;;;;;9.53;2.37;;;14.20;99.90;;;;;;5083145;28;20397;-78
2021/04/16 13:57:24;;;;;;;9.33;2.13;;;14.20;99.90;;;;;;5071284;28;20405;-78
2021/04/16 13:59:51;;;;;;;10.45;2.55;;;14.20;99.90;;;;;;5078254;28;20396;-78
2021/04/16 14:02:29;;;;;;;8.73;2.20;;;14.20;99.90;;;;;;5087761;28;20395;-78
2021/04/16 14:04:57;;;;;;;8.10;2.00;;;14.20;99.90;;;;;;5084394;28;20382;-78
2021/04/16 14:07:24;;;;;;;10.35;1.67;;;14.30;99.90;;;;;;5073161;28;20406;-78
2021/04/16 14:09:51;;;;;;;8.50;1.83;;;14.30;99.90;;;;;;5084301;28;20392;-78
2021/04/16 14:12:20;;;;;;;6.53;1.65;;;14.40;99.90;;;;;;5073333;28;20419;-78
2021/04/16 14:14:47;;;;;;;6.72;1.70;;;14.40;99.90;;;;;;5072045;28;20392;-78
2021/04/16 14:17:18;;;;;;;12.52;2.40;;;14.40;99.90;;;;;;5078263;28;20424;-78
2021/04/16 14:19:52;;;;;;;7.13;1.75;;;14.50;99.90;;;;;;5073723;28;20388;-78
2021/04/16 14:22:31;;;;;;;8.73;1.88;;;14.40;99.90;;;;;;5083294;28;20395;-78
2021/04/16 14:24:58;;;;;;;7.10;1.60;;;14.40;99.90;;;;;;5086463;28;20384;-78
2021/04/16 14:27:25;;;;;;;7.25;1.77;;;14.30;99.90;;;;;;5076316;28;20398;-78
2021/04/16 14:29:52;;;;;;;8.32;1.77;;;14.20;99.90;;;;;;5073150;28;20877;-77
2021/04/16 14:32:24;;;;;;;6.70;1.50;;;14.20;99.90;;;;;;5080180;28;20563;-78
2021/04/16 14:34:52;;;;;;;6.70;1.60;;;14.10;99.90;;;;;;5075332;28;20401;-78
2021/04/16 14:37:19;;;;;;;9.18;1.80;;;14.10;99.90;;;;;;5081760;28;20443;-78
2021/04/16 14:39:46;;;;;;;9.23;2.08;;;14.10;99.90;;;;;;5087461;28;20388;-78
2021/04/16 14:42:16;;;;;;;9.57;1.88;;;14.10;99.90;;;;;;5080128;28;20916;-78
2021/04/16 14:44:43;;;;;;;11.60;2.60;;;14.10;99.90;;;;;;5077106;28;20382;-78
2021/04/16 14:47:10;;;;;;;8.00;2.20;;;14.10;99.90;;;;;;5077837;28;20445;-78
2021/04/16 14:49:37;;;;;;;10.98;2.15;;;14.10;99.90;;;;;;5081672;28;20403;-78
2021/04/16 14:52:08;;;;;;;8.13;1.80;;;14.10;99.90;;;;;;5078424;28;20392;-78
2021/04/16 14:54:42;;;;;;;7.68;1.80;;;14.20;99.90;;;;;;5086388;28;20906;-78
2021/04/16 14:57:23;;;;;;;7.22;2.53;;;14.20;99.90;;;;;;5083200;28;20417;-78
2021/04/16 14:59:50;;;;;;;8.50;1.70;;;14.20;99.90;;;;;;5078396;28;20442;-78
2021/04/16 15:02:17;;;;;;;7.57;1.80;;;14.20;99.90;;;;;;5074083;28;20436;-78
2021/04/16 15:04:44;;;;;;;7.77;1.80;;;14.20;99.90;;;;;;5072706;28;20511;-78
2021/04/16 15:07:13;;;;;;;6.17;1.73;;;14.10;99.90;;;;;;5072282;28;20370;-78
2021/04/16 15:09:48;;;;;;;8.23;1.50;;;14.20;99.90;;;;;;5086918;28;20461;-78